Terminal Aerodrome Forecast
Issued by NWS

Home | Current Version | Previous Version | Text Only | Print | Product List | Glossary On
Versions: 1 2 3 4 5 6 7 8 9 10 11 12 13 14 15 16 17 18 19 20 21 22 23 24 25 26 27 28 29 30 31 32 33 34
000
FTUS45 KSLC 061129
TAF36U
TAF
K36U 061129Z 0612/0712 VRB04KT P6SM SCT060
     FM061500 VRB04KT P6SM SCT030 BKN060
     FM061900 VRB04KT P6SM VCSH SCT020 BKN040
     FM062200 01006KT 2SM -SN SCT007 BKN015
     FM070200 04006KT P6SM VCSH SCT020 BKN040=

USA.gov is the U.S. government's official web portal to all federal, state and local government web resources and services.